Terminal Aerodrome Forecast
Issued by NWS Omaha/Valley, NE

Home | Current Version | Previous Version | Text Only | Print | Product List | Glossary On
Versions: 1 2 3 4 5 6 7 8 9 10 11 12 13 14 15 16 17 18 19 20 21 22 23 24 25 26 27 28
000
FTUS43 KOAX 221139
TAFOFK
TAF
KOFK 221139Z 2212/2312 VRB05KT P6SM SCT250
      TEMPO 2212/2213 5SM BR
     FM221900 04008KT P6SM SCT040 SCT100
     FM230200 05006KT P6SM SCT040 BKN080
      TEMPO 2302/2306 5SM -TSRA BKN040CB=

USA.gov is the U.S. government's official web portal to all federal, state and local government web resources and services.